sensor_id;sensor_type;location;lat;lon;timestamp;P1;durP1;ratioP1;P2;durP2;ratioP2
29412;SDS011;16389;50.126;8.450;2023-06-14T00:00:47;3.50;;;3.10;;
29412;SDS011;16389;50.126;8.450;2023-06-14T00:03:13;6.30;;;3.13;;
29412;SDS011;16389;50.126;8.450;2023-06-14T00:05:42;3.60;;;3.03;;
29412;SDS011;16389;50.126;8.450;2023-06-14T00:08:11;3.55;;;3.10;;
29412;SDS011;16389;50.126;8.450;2023-06-14T00:10:38;3.92;;;3.53;;
29412;SDS011;16389;50.126;8.450;2023-06-14T00:13:07;3.28;;;2.95;;
29412;SDS011;16389;50.126;8.450;2023-06-14T00:15:33;3.15;;;2.85;;
29412;SDS011;16389;50.126;8.450;2023-06-14T00:18:00;6.03;;;3.25;;
29412;SDS011;16389;50.126;8.450;2023-06-14T00:20:26;2.70;;;2.50;;
29412;SDS011;16389;50.126;8.450;2023-06-14T00:22:55;4.20;;;3.05;;
29412;SDS011;16389;50.126;8.450;2023-06-14T00:25:24;3.42;;;2.75;;
29412;SDS011;16389;50.126;8.450;2023-06-14T00:27:53;3.20;;;2.90;;
29412;SDS011;16389;50.126;8.450;2023-06-14T00:30:19;3.40;;;2.83;;
29412;SDS011;16389;50.126;8.450;2023-06-14T00:32:45;4.80;;;2.95;;
29412;SDS011;16389;50.126;8.450;2023-06-14T00:35:12;4.28;;;2.55;;
29412;SDS011;16389;50.126;8.450;2023-06-14T00:37:38;6.22;;;3.38;;
29412;SDS011;16389;50.126;8.450;2023-06-14T00:40:04;3.00;;;2.70;;
29412;SDS011;16389;50.126;8.450;2023-06-14T00:42:30;2.92;;;2.63;;
29412;SDS011;16389;50.126;8.450;2023-06-14T00:44:56;3.53;;;3.08;;
29412;SDS011;16389;50.126;8.450;2023-06-14T00:47:22;2.90;;;2.70;;
29412;SDS011;16389;50.126;8.450;2023-06-14T00:49:49;4.40;;;2.90;;
29412;SDS011;16389;50.126;8.450;2023-06-14T00:52:18;3.30;;;2.65;;
29412;SDS011;16389;50.126;8.450;2023-06-14T00:54:44;4.68;;;2.75;;
29412;SDS011;16389;50.126;8.450;2023-06-14T00:57:10;3.17;;;2.70;;
29412;SDS011;16389;50.126;8.450;2023-06-14T00:59:38;7.20;;;3.35;;
29412;SDS011;16389;50.126;8.450;2023-06-14T01:02:10;3.10;;;2.67;;
29412;SDS011;16389;50.126;8.450;2023-06-14T01:04:37;3.38;;;3.08;;
29412;SDS011;16389;50.126;8.450;2023-06-14T01:07:51;3.10;;;2.50;;
29412;SDS011;16389;50.126;8.450;2023-06-14T01:10:09;2.85;;;2.63;;
29412;SDS011;16389;50.126;8.450;2023-06-14T01:15:44;3.92;;;3.40;;
29412;SDS011;16389;50.126;8.450;2023-06-14T01:18:11;3.45;;;3.15;;
29412;SDS011;16389;50.126;8.450;2023-06-14T01:20:45;3.38;;;2.88;;
29412;SDS011;16389;50.126;8.450;2023-06-14T01:23:14;8.77;;;3.10;;
29412;SDS011;16389;50.126;8.450;2023-06-14T01:25:50;3.20;;;2.70;;
29412;SDS011;16389;50.126;8.450;2023-06-14T01:28:18;2.78;;;2.42;;
29412;SDS011;16389;50.126;8.450;2023-06-14T01:30:46;3.83;;;2.63;;
29412;SDS011;16389;50.126;8.450;2023-06-14T01:33:24;2.97;;;2.67;;
29412;SDS011;16389;50.126;8.450;2023-06-14T01:35:52;3.08;;;2.58;;
29412;SDS011;16389;50.126;8.450;2023-06-14T01:38:20;3.15;;;2.83;;
29412;SDS011;16389;50.126;8.450;2023-06-14T01:40:49;2.88;;;2.58;;
29412;SDS011;16389;50.126;8.450;2023-06-14T01:43:16;2.80;;;2.50;;
29412;SDS011;16389;50.126;8.450;2023-06-14T01:45:44;3.40;;;2.72;;
29412;SDS011;16389;50.126;8.450;2023-06-14T01:48:12;4.53;;;2.88;;
29412;SDS011;16389;50.126;8.450;2023-06-14T01:50:38;3.00;;;2.70;;
29412;SDS011;16389;50.126;8.450;2023-06-14T01:53:06;3.13;;;2.92;;
29412;SDS011;16389;50.126;8.450;2023-06-14T01:55:33;4.07;;;2.67;;
29412;SDS011;16389;50.126;8.450;2023-06-14T01:58:05;5.30;;;3.00;;
29412;SDS011;16389;50.126;8.450;2023-06-14T02:00:31;3.38;;;2.90;;
29412;SDS011;16389;50.126;8.450;2023-06-14T02:02:57;5.15;;;2.75;;
29412;SDS011;16389;50.126;8.450;2023-06-14T02:05:23;4.13;;;3.17;;
29412;SDS011;16389;50.126;8.450;2023-06-14T02:07:49;6.03;;;3.05;;
29412;SDS011;16389;50.126;8.450;2023-06-14T02:10:15;2.97;;;2.78;;
29412;SDS011;16389;50.126;8.450;2023-06-14T02:12:42;2.97;;;2.70;;
29412;SDS011;16389;50.126;8.450;2023-06-14T02:15:08;3.50;;;2.85;;
29412;SDS011;16389;50.126;8.450;2023-06-14T02:17:35;2.80;;;2.45;;
29412;SDS011;16389;50.126;8.450;2023-06-14T02:20:00;3.55;;;3.20;;
29412;SDS011;16389;50.126;8.450;2023-06-14T02:22:29;3.55;;;3.25;;
29412;SDS011;16389;50.126;8.450;2023-06-14T02:24:56;3.35;;;2.55;;
29412;SDS011;16389;50.126;8.450;2023-06-14T02:27:21;3.00;;;2.60;;
29412;SDS011;16389;50.126;8.450;2023-06-14T02:29:47;3.67;;;3.38;;
29412;SDS011;16389;50.126;8.450;2023-06-14T02:32:12;3.40;;;2.80;;
29412;SDS011;16389;50.126;8.450;2023-06-14T02:34:38;3.72;;;2.65;;
29412;SDS011;16389;50.126;8.450;2023-06-14T02:37:06;3.50;;;2.70;;
29412;SDS011;16389;50.126;8.450;2023-06-14T02:39:32;3.63;;;2.78;;
29412;SDS011;16389;50.126;8.450;2023-06-14T02:41:57;3.13;;;2.83;;
29412;SDS011;16389;50.126;8.450;2023-06-14T02:44:26;2.78;;;2.47;;
29412;SDS011;16389;50.126;8.450;2023-06-14T02:46:55;2.60;;;2.40;;
29412;SDS011;16389;50.126;8.450;2023-06-14T02:49:21;3.78;;;2.80;;
29412;SDS011;16389;50.126;8.450;2023-06-14T02:51:47;3.78;;;3.22;;
29412;SDS011;16389;50.126;8.450;2023-06-14T02:54:13;3.78;;;2.75;;
29412;SDS011;16389;50.126;8.450;2023-06-14T02:56:39;4.32;;;2.85;;
29412;SDS011;16389;50.126;8.450;2023-06-14T02:59:05;3.30;;;2.97;;
29412;SDS011;16389;50.126;8.450;2023-06-14T03:01:32;3.53;;;2.42;;
29412;SDS011;16389;50.126;8.450;2023-06-14T03:04:06;4.60;;;2.72;;
29412;SDS011;16389;50.126;8.450;2023-06-14T03:06:32;5.03;;;3.05;;
29412;SDS011;16389;50.126;8.450;2023-06-14T03:08:58;3.92;;;2.67;;
29412;SDS011;16389;50.126;8.450;2023-06-14T03:11:25;2.97;;;2.67;;
29412;SDS011;16389;50.126;8.450;2023-06-14T03:13:51;5.70;;;2.75;;
29412;SDS011;16389;50.126;8.450;2023-06-14T03:16:17;3.53;;;2.75;;
29412;SDS011;16389;50.126;8.450;2023-06-14T03:18:47;3.38;;;2.90;;
29412;SDS011;16389;50.126;8.450;2023-06-14T03:21:14;5.07;;;3.13;;
29412;SDS011;16389;50.126;8.450;2023-06-14T03:23:41;3.40;;;2.72;;
29412;SDS011;16389;50.126;8.450;2023-06-14T03:26:07;6.63;;;2.90;;
29412;SDS011;16389;50.126;8.450;2023-06-14T03:28:33;4.40;;;2.75;;
29412;SDS011;16389;50.126;8.450;2023-06-14T03:30:58;3.50;;;3.20;;
29412;SDS011;16389;50.126;8.450;2023-06-14T03:33:24;3.22;;;2.90;;
29412;SDS011;16389;50.126;8.450;2023-06-14T03:35:50;3.25;;;2.88;;
29412;SDS011;16389;50.126;8.450;2023-06-14T03:38:16;4.30;;;2.78;;
29412;SDS011;16389;50.126;8.450;2023-06-14T03:40:42;3.25;;;2.95;;
29412;SDS011;16389;50.126;8.450;2023-06-14T03:43:09;4.13;;;2.88;;
29412;SDS011;16389;50.126;8.450;2023-06-14T03:45:35;4.00;;;3.15;;
29412;SDS011;16389;50.126;8.450;2023-06-14T03:48:01;3.33;;;2.97;;
29412;SDS011;16389;50.126;8.450;2023-06-14T03:50:27;3.83;;;3.00;;
29412;SDS011;16389;50.126;8.450;2023-06-14T03:52:53;3.03;;;2.80;;
29412;SDS011;16389;50.126;8.450;2023-06-14T03:55:19;4.00;;;3.17;;
29412;SDS011;16389;50.126;8.450;2023-06-14T03:57:45;3.35;;;2.80;;
29412;SDS011;16389;50.126;8.450;2023-06-14T04:00:10;4.20;;;2.75;;
29412;SDS011;16389;50.126;8.450;2023-06-14T04:02:37;5.05;;;3.05;;
29412;SDS011;16389;50.126;8.450;2023-06-14T04:05:03;3.20;;;2.90;;
29412;SDS011;16389;50.126;8.450;2023-06-14T04:07:33;3.83;;;2.63;;
29412;SDS011;16389;50.126;8.450;2023-06-14T04:10:04;3.08;;;2.78;;
29412;SDS011;16389;50.126;8.450;2023-06-14T04:12:31;3.60;;;3.30;;
29412;SDS011;16389;50.126;8.450;2023-06-14T04:14:56;3.85;;;3.10;;
29412;SDS011;16389;50.126;8.450;2023-06-14T04:17:22;4.10;;;3.15;;
29412;SDS011;16389;50.126;8.450;2023-06-14T04:19:48;3.20;;;2.70;;
29412;SDS011;16389;50.126;8.450;2023-06-14T04:22:13;3.22;;;2.92;;
29412;SDS011;16389;50.126;8.450;2023-06-14T04:24:39;6.13;;;2.80;;
29412;SDS011;16389;50.126;8.450;2023-06-14T04:27:07;3.30;;;2.97;;
29412;SDS011;16389;50.126;8.450;2023-06-14T04:29:33;3.13;;;2.80;;
29412;SDS011;16389;50.126;8.450;2023-06-14T04:31:58;3.42;;;3.13;;
29412;SDS011;16389;50.126;8.450;2023-06-14T04:34:27;3.35;;;2.83;;
29412;SDS011;16389;50.126;8.450;2023-06-14T04:36:58;4.65;;;3.13;;
29412;SDS011;16389;50.126;8.450;2023-06-14T04:39:26;3.63;;;3.08;;
29412;SDS011;16389;50.126;8.450;2023-06-14T04:41:52;3.40;;;2.50;;
29412;SDS011;16389;50.126;8.450;2023-06-14T04:44:21;5.20;;;2.75;;
29412;SDS011;16389;50.126;8.450;2023-06-14T04:46:54;3.40;;;2.72;;
29412;SDS011;16389;50.126;8.450;2023-06-14T04:49:21;3.33;;;3.00;;
29412;SDS011;16389;50.126;8.450;2023-06-14T04:51:48;3.75;;;2.83;;
29412;SDS011;16389;50.126;8.450;2023-06-14T04:54:22;3.10;;;2.70;;
29412;SDS011;16389;50.126;8.450;2023-06-14T04:56:49;2.83;;;2.38;;
29412;SDS011;16389;50.126;8.450;2023-06-14T04:59:15;3.95;;;2.70;;
29412;SDS011;16389;50.126;8.450;2023-06-14T05:01:42;3.33;;;2.90;;
29412;SDS011;16389;50.126;8.450;2023-06-14T05:04:12;3.22;;;2.55;;
29412;SDS011;16389;50.126;8.450;2023-06-14T05:06:38;6.43;;;2.65;;
29412;SDS011;16389;50.126;8.450;2023-06-14T05:09:04;3.28;;;2.28;;
29412;SDS011;16389;50.126;8.450;2023-06-14T05:11:30;3.13;;;2.35;;
29412;SDS011;16389;50.126;8.450;2023-06-14T05:13:55;3.22;;;2.33;;
29412;SDS011;16389;50.126;8.450;2023-06-14T05:16:23;2.50;;;2.30;;
29412;SDS011;16389;50.126;8.450;2023-06-14T05:18:50;3.05;;;2.78;;
29412;SDS011;16389;50.126;8.450;2023-06-14T05:21:17;3.40;;;2.70;;
29412;SDS011;16389;50.126;8.450;2023-06-14T05:23:43;4.25;;;2.15;;
29412;SDS011;16389;50.126;8.450;2023-06-14T05:26:11;4.88;;;2.67;;
29412;SDS011;16389;50.126;8.450;2023-06-14T05:28:37;2.35;;;2.15;;
29412;SDS011;16389;50.126;8.450;2023-06-14T05:31:03;3.88;;;2.13;;
29412;SDS011;16389;50.126;8.450;2023-06-14T05:33:28;5.07;;;2.50;;
29412;SDS011;16389;50.126;8.450;2023-06-14T05:35:54;2.30;;;2.10;;
29412;SDS011;16389;50.126;8.450;2023-06-14T05:38:20;3.40;;;2.30;;
29412;SDS011;16389;50.126;8.450;2023-06-14T05:40:46;6.97;;;2.78;;
29412;SDS011;16389;50.126;8.450;2023-06-14T05:43:12;2.92;;;2.28;;
29412;SDS011;16389;50.126;8.450;2023-06-14T05:45:37;5.57;;;2.75;;
29412;SDS011;16389;50.126;8.450;2023-06-14T05:48:03;3.05;;;2.67;;
29412;SDS011;16389;50.126;8.450;2023-06-14T05:50:29;6.78;;;3.25;;
29412;SDS011;16389;50.126;8.450;2023-06-14T05:52:55;4.90;;;2.95;;
29412;SDS011;16389;50.126;8.450;2023-06-14T05:55:20;2.90;;;2.70;;
29412;SDS011;16389;50.126;8.450;2023-06-14T05:57:46;4.50;;;2.70;;
29412;SDS011;16389;50.126;8.450;2023-06-14T06:00:13;3.05;;;2.75;;
29412;SDS011;16389;50.126;8.450;2023-06-14T06:02:43;3.70;;;2.60;;
29412;SDS011;16389;50.126;8.450;2023-06-14T06:05:10;4.68;;;3.08;;
29412;SDS011;16389;50.126;8.450;2023-06-14T06:07:36;2.60;;;2.20;;
29412;SDS011;16389;50.126;8.450;2023-06-14T06:10:02;4.25;;;2.40;;
29412;SDS011;16389;50.126;8.450;2023-06-14T06:12:29;2.63;;;2.42;;
29412;SDS011;16389;50.126;8.450;2023-06-14T06:14:55;3.55;;;2.40;;
29412;SDS011;16389;50.126;8.450;2023-06-14T06:17:21;3.00;;;2.65;;
29412;SDS011;16389;50.126;8.450;2023-06-14T06:19:47;2.83;;;2.45;;
29412;SDS011;16389;50.126;8.450;2023-06-14T06:22:12;2.50;;;2.30;;
29412;SDS011;16389;50.126;8.450;2023-06-14T06:24:38;3.97;;;2.28;;
29412;SDS011;16389;50.126;8.450;2023-06-14T06:27:04;5.43;;;2.58;;
29412;SDS011;16389;50.126;8.450;2023-06-14T06:29:30;2.38;;;2.17;;
29412;SDS011;16389;50.126;8.450;2023-06-14T06:31:55;2.90;;;2.40;;
29412;SDS011;16389;50.126;8.450;2023-06-14T06:34:21;2.45;;;1.95;;
29412;SDS011;16389;50.126;8.450;2023-06-14T06:36:47;4.13;;;2.20;;
29412;SDS011;16389;50.126;8.450;2023-06-14T06:39:12;2.53;;;1.98;;
29412;SDS011;16389;50.126;8.450;2023-06-14T06:41:40;2.47;;;1.80;;
29412;SDS011;16389;50.126;8.450;2023-06-14T06:44:06;2.78;;;2.58;;
29412;SDS011;16389;50.126;8.450;2023-06-14T06:46:32;3.63;;;2.28;;
29412;SDS011;16389;50.126;8.450;2023-06-14T06:48:58;2.65;;;1.80;;
29412;SDS011;16389;50.126;8.450;2023-06-14T06:51:25;2.92;;;2.25;;
29412;SDS011;16389;50.126;8.450;2023-06-14T06:53:54;3.08;;;1.95;;
29412;SDS011;16389;50.126;8.450;2023-06-14T06:56:20;4.67;;;1.90;;
29412;SDS011;16389;50.126;8.450;2023-06-14T06:58:48;2.75;;;1.85;;
29412;SDS011;16389;50.126;8.450;2023-06-14T07:01:14;1.90;;;1.80;;
29412;SDS011;16389;50.126;8.450;2023-06-14T07:03:40;2.08;;;1.88;;
29412;SDS011;16389;50.126;8.450;2023-06-14T07:06:06;2.00;;;1.80;;
29412;SDS011;16389;50.126;8.450;2023-06-14T07:08:32;2.35;;;1.70;;
29412;SDS011;16389;50.126;8.450;2023-06-14T07:10:57;2.95;;;2.17;;
29412;SDS011;16389;50.126;8.450;2023-06-14T07:13:23;2.55;;;1.98;;
29412;SDS011;16389;50.126;8.450;2023-06-14T07:15:49;2.33;;;1.70;;
29412;SDS011;16389;50.126;8.450;2023-06-14T07:18:14;1.77;;;1.65;;
29412;SDS011;16389;50.126;8.450;2023-06-14T07:20:40;2.33;;;2.00;;
29412;SDS011;16389;50.126;8.450;2023-06-14T07:23:07;2.17;;;1.77;;
29412;SDS011;16389;50.126;8.450;2023-06-14T07:25:33;3.28;;;1.60;;
29412;SDS011;16389;50.126;8.450;2023-06-14T07:27:58;5.40;;;1.80;;
29412;SDS011;16389;50.126;8.450;2023-06-14T07:30:24;3.15;;;1.95;;
29412;SDS011;16389;50.126;8.450;2023-06-14T07:32:52;3.63;;;2.20;;
29412;SDS011;16389;50.126;8.450;2023-06-14T07:35:18;3.05;;;1.80;;
29412;SDS011;16389;50.126;8.450;2023-06-14T07:37:43;2.15;;;1.52;;
29412;SDS011;16389;50.126;8.450;2023-06-14T07:40:10;1.75;;;1.50;;
29412;SDS011;16389;50.126;8.450;2023-06-14T07:42:36;2.03;;;1.92;;
29412;SDS011;16389;50.126;8.450;2023-06-14T07:45:05;2.70;;;1.75;;
29412;SDS011;16389;50.126;8.450;2023-06-14T07:47:31;1.83;;;1.45;;
29412;SDS011;16389;50.126;8.450;2023-06-14T07:49:57;1.70;;;1.50;;
29412;SDS011;16389;50.126;8.450;2023-06-14T07:52:23;2.08;;;1.88;;
29412;SDS011;16389;50.126;8.450;2023-06-14T07:54:48;1.88;;;1.58;;
29412;SDS011;16389;50.126;8.450;2023-06-14T07:57:14;2.20;;;1.58;;
29412;SDS011;16389;50.126;8.450;2023-06-14T07:59:40;3.85;;;1.70;;
29412;SDS011;16389;50.126;8.450;2023-06-14T08:02:05;1.55;;;1.40;;
29412;SDS011;16389;50.126;8.450;2023-06-14T08:04:32;1.65;;;1.55;;
29412;SDS011;16389;50.126;8.450;2023-06-14T08:06:58;2.20;;;2.00;;
29412;SDS011;16389;50.126;8.450;2023-06-14T08:09:24;1.90;;;1.50;;
29412;SDS011;16389;50.126;8.450;2023-06-14T08:11:50;2.08;;;1.20;;
29412;SDS011;16389;50.126;8.450;2023-06-14T08:14:16;1.83;;;1.38;;
29412;SDS011;16389;50.126;8.450;2023-06-14T08:16:41;1.95;;;1.75;;
29412;SDS011;16389;50.126;8.450;2023-06-14T08:19:07;4.30;;;1.30;;
29412;SDS011;16389;50.126;8.450;2023-06-14T08:21:33;1.60;;;1.17;;
29412;SDS011;16389;50.126;8.450;2023-06-14T08:24:01;2.22;;;1.33;;
29412;SDS011;16389;50.126;8.450;2023-06-14T08:26:27;2.33;;;1.58;;
29412;SDS011;16389;50.126;8.450;2023-06-14T08:28:56;1.65;;;1.45;;
29412;SDS011;16389;50.126;8.450;2023-06-14T08:31:22;2.45;;;1.50;;
29412;SDS011;16389;50.126;8.450;2023-06-14T08:33:49;1.63;;;1.10;;
29412;SDS011;16389;50.126;8.450;2023-06-14T08:36:14;2.58;;;1.10;;
29412;SDS011;16389;50.126;8.450;2023-06-14T08:38:40;1.88;;;1.20;;
29412;SDS011;16389;50.126;8.450;2023-06-14T08:41:06;1.70;;;1.00;;
29412;SDS011;16389;50.126;8.450;2023-06-14T08:43:32;1.40;;;1.30;;
29412;SDS011;16389;50.126;8.450;2023-06-14T08:46:00;1.50;;;1.40;;
29412;SDS011;16389;50.126;8.450;2023-06-14T08:48:28;0.95;;;0.95;;
29412;SDS011;16389;50.126;8.450;2023-06-14T08:50:55;1.70;;;1.05;;
29412;SDS011;16389;50.126;8.450;2023-06-14T08:53:35;1.00;;;1.00;;
29412;SDS011;16389;50.126;8.450;2023-06-14T08:56:07;1.00;;;1.00;;
29412;SDS011;16389;50.126;8.450;2023-06-14T08:58:38;1.20;;;1.10;;
29412;SDS011;16389;50.126;8.450;2023-06-14T09:01:09;1.40;;;1.20;;
29412;SDS011;16389;50.126;8.450;2023-06-14T09:03:41;1.10;;;1.00;;
29412;SDS011;16389;50.126;8.450;2023-06-14T09:06:08;2.03;;;1.10;;
29412;SDS011;16389;50.126;8.450;2023-06-14T09:08:39;1.30;;;1.20;;
29412;SDS011;16389;50.126;8.450;2023-06-14T09:11:10;3.47;;;1.20;;
29412;SDS011;16389;50.126;8.450;2023-06-14T09:13:37;2.85;;;1.17;;
29412;SDS011;16389;50.126;8.450;2023-06-14T09:16:03;1.25;;;1.15;;
29412;SDS011;16389;50.126;8.450;2023-06-14T09:21:13;1.00;;;0.90;;
29412;SDS011;16389;50.126;8.450;2023-06-14T09:23:41;2.15;;;1.00;;
29412;SDS011;16389;50.126;8.450;2023-06-14T09:26:13;2.25;;;1.10;;
29412;SDS011;16389;50.126;8.450;2023-06-14T09:28:41;1.45;;;1.27;;
29412;SDS011;16389;50.126;8.450;2023-06-14T09:31:09;1.10;;;1.00;;
29412;SDS011;16389;50.126;8.450;2023-06-14T09:33:36;1.45;;;1.10;;
29412;SDS011;16389;50.126;8.450;2023-06-14T09:36:02;1.20;;;1.10;;
29412;SDS011;16389;50.126;8.450;2023-06-14T09:38:29;1.25;;;1.08;;
29412;SDS011;16389;50.126;8.450;2023-06-14T09:40:58;1.88;;;0.88;;
29412;SDS011;16389;50.126;8.450;2023-06-14T09:43:23;1.30;;;1.20;;
29412;SDS011;16389;50.126;8.450;2023-06-14T09:45:52;1.08;;;0.82;;
29412;SDS011;16389;50.126;8.450;2023-06-14T09:48:19;1.08;;;1.00;;
29412;SDS011;16389;50.126;8.450;2023-06-14T09:50:45;0.80;;;0.80;;
29412;SDS011;16389;50.126;8.450;2023-06-14T09:53:12;1.20;;;1.10;;
29412;SDS011;16389;50.126;8.450;2023-06-14T09:55:40;2.05;;;0.90;;
29412;SDS011;16389;50.126;8.450;2023-06-14T09:58:07;0.80;;;0.80;;
29412;SDS011;16389;50.126;8.450;2023-06-14T10:00:34;2.75;;;1.65;;
29412;SDS011;16389;50.126;8.450;2023-06-14T10:03:25;1.02;;;1.02;;
29412;SDS011;16389;50.126;8.450;2023-06-14T10:05:52;1.75;;;0.90;;
29412;SDS011;16389;50.126;8.450;2023-06-14T10:08:23;0.90;;;0.90;;
29412;SDS011;16389;50.126;8.450;2023-06-14T10:10:51;1.15;;;1.05;;
29412;SDS011;16389;50.126;8.450;2023-06-14T10:13:17;0.90;;;0.80;;
29412;SDS011;16389;50.126;8.450;2023-06-14T10:18:53;1.33;;;1.23;;
29412;SDS011;16389;50.126;8.450;2023-06-14T10:21:50;1.08;;;0.90;;
29412;SDS011;16389;50.126;8.450;2023-06-14T10:24:28;1.42;;;1.10;;
29412;SDS011;16389;50.126;8.450;2023-06-14T10:26:58;1.58;;;1.10;;
29412;SDS011;16389;50.126;8.450;2023-06-14T10:29:24;1.30;;;1.10;;
29412;SDS011;16389;50.126;8.450;2023-06-14T10:31:56;1.00;;;1.00;;
29412;SDS011;16389;50.126;8.450;2023-06-14T10:34:26;1.10;;;1.00;;
29412;SDS011;16389;50.126;8.450;2023-06-14T10:42:03;1.92;;;1.20;;
29412;SDS011;16389;50.126;8.450;2023-06-14T10:46:58;1.00;;;0.88;;
29412;SDS011;16389;50.126;8.450;2023-06-14T10:49:50;1.30;;;1.20;;
29412;SDS011;16389;50.126;8.450;2023-06-14T10:52:32;1.75;;;1.00;;
29412;SDS011;16389;50.126;8.450;2023-06-14T10:55:04;1.20;;;1.10;;
29412;SDS011;16389;50.126;8.450;2023-06-14T11:00:16;1.10;;;1.10;;
29412;SDS011;16389;50.126;8.450;2023-06-14T11:05:48;1.23;;;1.10;;
29412;SDS011;16389;50.126;8.450;2023-06-14T11:11:21;1.08;;;1.00;;
29412;SDS011;16389;50.126;8.450;2023-06-14T11:13:50;1.23;;;1.13;;
29412;SDS011;16389;50.126;8.450;2023-06-14T11:16:17;1.48;;;1.38;;
29412;SDS011;16389;50.126;8.450;2023-06-14T11:18:45;1.30;;;1.20;;
29412;SDS011;16389;50.126;8.450;2023-06-14T11:21:15;1.50;;;1.40;;
29412;SDS011;16389;50.126;8.450;2023-06-14T11:23:41;1.33;;;1.30;;
29412;SDS011;16389;50.126;8.450;2023-06-14T11:26:07;1.23;;;1.20;;
29412;SDS011;16389;50.126;8.450;2023-06-14T11:28:39;1.23;;;1.20;;
29412;SDS011;16389;50.126;8.450;2023-06-14T11:31:06;1.20;;;1.20;;
29412;SDS011;16389;50.126;8.450;2023-06-14T11:33:32;1.52;;;1.42;;
29412;SDS011;16389;50.126;8.450;2023-06-14T11:36:01;1.63;;;1.52;;
29412;SDS011;16389;50.126;8.450;2023-06-14T11:38:27;3.53;;;1.30;;
29412;SDS011;16389;50.126;8.450;2023-06-14T11:40:53;1.30;;;1.30;;
29412;SDS011;16389;50.126;8.450;2023-06-14T11:43:23;1.30;;;1.23;;
29412;SDS011;16389;50.126;8.450;2023-06-14T11:45:50;1.77;;;1.30;;
29412;SDS011;16389;50.126;8.450;2023-06-14T11:48:16;1.50;;;1.40;;
29412;SDS011;16389;50.126;8.450;2023-06-14T11:50:42;1.40;;;1.30;;
29412;SDS011;16389;50.126;8.450;2023-06-14T11:53:07;1.25;;;1.20;;
29412;SDS011;16389;50.126;8.450;2023-06-14T11:55:38;2.45;;;1.40;;
29412;SDS011;16389;50.126;8.450;2023-06-14T11:58:05;1.52;;;1.30;;
29412;SDS011;16389;50.126;8.450;2023-06-14T12:00:31;1.50;;;1.40;;
29412;SDS011;16389;50.126;8.450;2023-06-14T12:02:57;1.08;;;1.02;;
29412;SDS011;16389;50.126;8.450;2023-06-14T12:05:23;1.10;;;1.10;;
29412;SDS011;16389;50.126;8.450;2023-06-14T12:07:49;1.45;;;1.30;;
29412;SDS011;16389;50.126;8.450;2023-06-14T12:10:18;1.10;;;1.10;;
29412;SDS011;16389;50.126;8.450;2023-06-14T12:12:44;1.30;;;1.20;;
29412;SDS011;16389;50.126;8.450;2023-06-14T12:15:10;1.10;;;1.10;;
29412;SDS011;16389;50.126;8.450;2023-06-14T12:17:37;1.23;;;1.13;;
29412;SDS011;16389;50.126;8.450;2023-06-14T12:20:07;1.40;;;1.30;;
29412;SDS011;16389;50.126;8.450;2023-06-14T12:22:36;2.08;;;1.10;;
29412;SDS011;16389;50.126;8.450;2023-06-14T12:25:03;1.38;;;1.27;;
29412;SDS011;16389;50.126;8.450;2023-06-14T12:27:29;1.23;;;1.15;;
29412;SDS011;16389;50.126;8.450;2023-06-14T12:30:02;1.77;;;1.13;;
29412;SDS011;16389;50.126;8.450;2023-06-14T12:32:28;1.30;;;1.20;;
29412;SDS011;16389;50.126;8.450;2023-06-14T12:34:54;1.30;;;1.20;;
29412;SDS011;16389;50.126;8.450;2023-06-14T12:37:20;1.23;;;1.10;;
29412;SDS011;16389;50.126;8.450;2023-06-14T12:39:46;0.90;;;0.90;;
29412;SDS011;16389;50.126;8.450;2023-06-14T12:42:12;1.45;;;1.10;;
29412;SDS011;16389;50.126;8.450;2023-06-14T12:44:39;1.20;;;1.10;;
29412;SDS011;16389;50.126;8.450;2023-06-14T12:47:06;1.23;;;1.13;;
29412;SDS011;16389;50.126;8.450;2023-06-14T12:49:32;1.58;;;1.48;;
29412;SDS011;16389;50.126;8.450;2023-06-14T12:51:58;1.08;;;1.08;;
29412;SDS011;16389;50.126;8.450;2023-06-14T12:54:24;2.45;;;1.20;;
29412;SDS011;16389;50.126;8.450;2023-06-14T12:56:51;1.63;;;1.13;;
29412;SDS011;16389;50.126;8.450;2023-06-14T12:59:18;1.10;;;1.00;;
29412;SDS011;16389;50.126;8.450;2023-06-14T13:01:43;1.77;;;1.27;;
29412;SDS011;16389;50.126;8.450;2023-06-14T13:04:10;1.52;;;1.42;;
29412;SDS011;16389;50.126;8.450;2023-06-14T13:06:36;1.40;;;1.30;;
29412;SDS011;16389;50.126;8.450;2023-06-14T13:09:01;1.40;;;1.30;;
29412;SDS011;16389;50.126;8.450;2023-06-14T13:11:28;1.40;;;1.30;;
29412;SDS011;16389;50.126;8.450;2023-06-14T13:13:55;1.30;;;1.20;;
29412;SDS011;16389;50.126;8.450;2023-06-14T13:16:21;1.30;;;1.20;;
29412;SDS011;16389;50.126;8.450;2023-06-14T13:18:46;1.30;;;1.20;;
29412;SDS011;16389;50.126;8.450;2023-06-14T13:21:12;1.98;;;1.40;;
29412;SDS011;16389;50.126;8.450;2023-06-14T13:23:38;1.42;;;1.33;;
29412;SDS011;16389;50.126;8.450;2023-06-14T13:26:03;1.35;;;1.25;;
29412;SDS011;16389;50.126;8.450;2023-06-14T13:28:29;1.40;;;1.30;;
29412;SDS011;16389;50.126;8.450;2023-06-14T13:30:56;2.67;;;1.23;;
29412;SDS011;16389;50.126;8.450;2023-06-14T13:33:22;1.30;;;1.20;;
29412;SDS011;16389;50.126;8.450;2023-06-14T13:35:49;1.45;;;1.35;;
29412;SDS011;16389;50.126;8.450;2023-06-14T13:38:15;2.22;;;1.45;;
29412;SDS011;16389;50.126;8.450;2023-06-14T13:40:40;1.40;;;1.30;;
29412;SDS011;16389;50.126;8.450;2023-06-14T13:43:06;1.55;;;1.30;;
29412;SDS011;16389;50.126;8.450;2023-06-14T13:45:32;1.58;;;1.48;;
29412;SDS011;16389;50.126;8.450;2023-06-14T13:47:57;1.65;;;1.27;;
29412;SDS011;16389;50.126;8.450;2023-06-14T13:50:23;1.98;;;1.25;;
29412;SDS011;16389;50.126;8.450;2023-06-14T13:52:48;1.50;;;1.40;;
29412;SDS011;16389;50.126;8.450;2023-06-14T13:55:14;1.73;;;1.63;;
29412;SDS011;16389;50.126;8.450;2023-06-14T13:57:39;1.60;;;1.38;;
29412;SDS011;16389;50.126;8.450;2023-06-14T14:00:05;1.95;;;1.45;;
29412;SDS011;16389;50.126;8.450;2023-06-14T14:02:31;1.50;;;1.40;;
29412;SDS011;16389;50.126;8.450;2023-06-14T14:04:57;1.42;;;1.33;;
29412;SDS011;16389;50.126;8.450;2023-06-14T14:07:23;1.48;;;1.20;;
29412;SDS011;16389;50.126;8.450;2023-06-14T14:09:48;1.50;;;1.40;;
29412;SDS011;16389;50.126;8.450;2023-06-14T14:12:14;1.50;;;1.40;;
29412;SDS011;16389;50.126;8.450;2023-06-14T14:14:40;2.60;;;1.27;;
29412;SDS011;16389;50.126;8.450;2023-06-14T14:17:06;1.58;;;1.48;;
29412;SDS011;16389;50.126;8.450;2023-06-14T14:19:31;1.60;;;1.50;;
29412;SDS011;16389;50.126;8.450;2023-06-14T14:21:58;1.67;;;1.45;;
29412;SDS011;16389;50.126;8.450;2023-06-14T14:24:23;1.52;;;1.40;;
29412;SDS011;16389;50.126;8.450;2023-06-14T14:26:51;1.60;;;1.20;;
29412;SDS011;16389;50.126;8.450;2023-06-14T14:29:18;2.08;;;1.88;;
29412;SDS011;16389;50.126;8.450;2023-06-14T14:31:44;1.30;;;1.20;;
29412;SDS011;16389;50.126;8.450;2023-06-14T14:34:10;1.50;;;1.38;;
29412;SDS011;16389;50.126;8.450;2023-06-14T14:36:36;1.67;;;1.30;;
29412;SDS011;16389;50.126;8.450;2023-06-14T14:39:03;1.33;;;1.10;;
29412;SDS011;16389;50.126;8.450;2023-06-14T14:41:29;1.40;;;1.30;;
29412;SDS011;16389;50.126;8.450;2023-06-14T14:43:54;1.88;;;1.10;;
29412;SDS011;16389;50.126;8.450;2023-06-14T14:46:20;1.50;;;1.40;;
29412;SDS011;16389;50.126;8.450;2023-06-14T14:48:46;1.95;;;1.67;;
29412;SDS011;16389;50.126;8.450;2023-06-14T14:51:11;2.75;;;1.30;;
29412;SDS011;16389;50.126;8.450;2023-06-14T14:53:37;1.30;;;1.20;;
29412;SDS011;16389;50.126;8.450;2023-06-14T14:56:03;1.25;;;1.15;;
29412;SDS011;16389;50.126;8.450;2023-06-14T14:58:28;1.35;;;1.25;;
29412;SDS011;16389;50.126;8.450;2023-06-14T15:00:54;1.48;;;1.33;;
29412;SDS011;16389;50.126;8.450;2023-06-14T15:03:20;1.50;;;1.23;;
29412;SDS011;16389;50.126;8.450;2023-06-14T15:05:46;1.67;;;1.33;;
29412;SDS011;16389;50.126;8.450;2023-06-14T15:08:12;1.73;;;1.17;;
29412;SDS011;16389;50.126;8.450;2023-06-14T15:10:38;1.50;;;1.40;;
29412;SDS011;16389;50.126;8.450;2023-06-14T15:13:08;1.40;;;1.30;;